Etusivu
METAR-TAF:

METAR-TAF

Lentoasemat :

Tamanrasset, Algeria

Leveyspiiri: 22-49N, Pituuspiiri: 005-28E, korkeus merenpinnasta: 1377 m

Tämänhetkinen sää

Tämä raportti tehtiin 17 minuuttia sitten, kello 06.00 UTC
Tuuli 5 kn idästä/koillisesta
Lämpötila 8°C
Kosteus 27%
Ilmanpaine 1021 hPa
Näkyvyys 10 km tai enemmän
ei pilviä alle 1500 m:ssä eikä cumulonimbus-pilviä

METAR: DAAT 270600Z 06005KT CAVOK 08/M10 Q1021

Aika: 07:17 (06:17 UTC)

Sääennuste

Tämä raportti tehtiin 1 tunti ja 17 minuuttia sitten, kello 05.00 UTC
Ennuste voimassa 27. päivästä klo 06 UTC - 28. päivään klo 06 UTC
Tuuli 8 kn idästä/koillisesta
Näkyvyys 10 km tai enemmän
ei pilviä alle 1500 m:ssä eikä cumulonimbus-pilviä
Tulossa
27. päivästä klo 10 UTC - 27. päivään klo 14 UTC
Tuuli 10 kn etelästä/kaakosta
Tulossa
27. päivästä klo 20 UTC - 27. päivään klo 23 UTC
Tuuli 8 kn idästä/koillisesta

TAF: DAAT 270500Z 2706/2806 06008KT CAVOK BECMG 2710/2714 16010KT BECMG 2720/2723 06008KT

Säähavainnot ja -ennusteet yli 4000 lentoasemalta (METAR- ja TAF-raportit).

Käytössä olevat sääasemat on merkitty karttaan keltaisilla ja punaisilla pisteillä.

Aseta hiiri pisteen päälle nähdäksesi sääaseman nimen.

Klikkaa sitten nähdäksesi säähavainnot ja -ennusteet.

Kartan vaihtaminen: klikkaa mustalla rastilla varustettuja vihreitä pisteitä, niin voit zoomata sisään; viivalla varustettua vihreää pistettä, niin voit zoomata ulos tai vihreitä nuolia, niin pääset viereisille kartoille.


METAR-TAF: